Latest Weather Observations for Mackay

IDQ60801

Issued at 11:05 pm EST Thursday 24 April 2014 (issued every 30 minutes, with the page automatically refreshed every 10 minutes)

About weather observations | Map of weather stations | Latest weather observations for QLD | Other Formats
Station Details ID: 033119 Name: MACKAY M.O Lat: -21.12 Lon: 149.22 Height: 30.26 m
Data from the previous 72 hours. | See also: Recent months at Mackay
Date/Time
EST
Temp
°C
App
Temp
°C
Dew
Point
Rel
Hum
%
Delta-T
°C
Wind Press
QNH
hPa
Press
MSL
hPa
Rain
since 9 am
mm
Dir
 
Spd
km/h
Gust
km/h
Spd
kts
Gust
kts
24/11:00pm 20.6 22.2 20.0 96 0.4 SW 11 17 6 9 1014.8 1014.6 20.0
24/10:30pm 20.7 22.5 20.4 98 0.2 SW 11 13 6 7 1015.4 - 20.0
24/10:00pm 21.0 21.2 20.5 97 0.3 S 20 28 11 15 1015.3 1015.1 20.0
24/09:30pm 20.8 20.5 20.3 97 0.3 S 22 30 12 16 1015.4 - 20.0
24/09:00pm 20.7 20.9 20.1 96 0.4 S 19 24 10 13 1015.4 1015.2 19.6
24/08:30pm 21.0 21.7 20.4 96 0.4 S 17 28 9 15 1015.4 - 19.6
24/08:00pm 20.9 21.1 20.1 95 0.5 S 19 26 10 14 1015.3 1015.1 19.6
24/07:30pm 21.3 21.7 20.7 96 0.4 SSW 19 24 10 13 1015.0 - 19.6
24/07:00pm 21.2 21.3 20.4 95 0.5 S 20 32 11 17 1014.2 1014.0 19.6
24/06:30pm 21.2 21.6 20.6 96 0.4 S 19 26 10 14 1013.8 - 19.6
24/06:00pm 21.8 22.5 21.2 96 0.4 S 19 26 10 14 1013.4 1013.2 19.6
24/05:30pm 21.8 23.1 20.9 95 0.6 S 15 26 8 14 1013.1 - 19.6
24/05:00pm 21.8 23.7 21.3 97 0.3 S 13 22 7 12 1012.9 1012.7 19.2
24/04:30pm 21.6 23.4 21.1 97 0.3 S 13 19 7 10 1012.4 - 18.8
24/04:00pm 22.3 25.2 21.7 96 0.4 S 9 13 5 7 1012.3 1012.1 18.6
24/03:30pm 22.4 24.4 21.6 95 0.5 SSE 13 19 7 10 1012.4 - 18.4
24/03:00pm 22.9 25.2 22.1 95 0.5 SSE 13 20 7 11 1012.5 1012.3 16.6
24/02:30pm 23.4 26.7 22.5 95 0.6 SE 9 15 5 8 1012.5 - 16.6
24/02:00pm 22.8 25.8 22.0 95 0.5 SE 9 17 5 9 1012.6 1012.4 16.6
24/01:30pm 22.9 25.2 22.1 95 0.5 SE 13 20 7 11 1012.9 - 16.2
24/01:00pm 22.9 23.8 20.9 88 1.3 SE 17 24 9 13 1013.3 1013.1 16.2
24/12:30pm 23.5 25.5 22.3 93 0.8 S 15 22 8 12 1013.4 - 16.2
24/12:00pm 23.7 25.8 22.5 93 0.8 S 15 20 8 11 1013.6 1013.4 16.2
24/11:30am 23.1 25.6 22.5 96 0.4 S 13 20 7 11 1014.0 - 16.2
24/11:00am 21.8 24.9 21.5 98 0.2 SSE 7 11 4 6 1014.8 1014.6 16.0
24/10:30am 22.3 25.7 22.0 98 0.2 NNE 7 15 4 8 1015.3 - 9.4
24/10:00am 22.3 24.5 21.8 97 0.3 SSW 13 20 7 11 1015.1 1014.9 2.0
24/09:30am 23.1 26.2 22.2 95 0.6 SSE 9 15 5 8 1015.2 - 1.0
24/09:00am 23.5 26.8 22.5 94 0.7 SE 9 17 5 9 1015.1 1014.9 32.6
24/08:30am 23.5 25.4 22.1 92 0.9 E 15 22 8 12 1015.0 - 32.0
24/08:00am 23.1 23.5 21.7 92 0.9 E 22 35 12 19 1014.6 1014.4 30.6
24/07:46am 23.3 26.0 22.2 93 0.7 SE 11 15 6 8 1014.6 - 29.8
24/07:30am 23.4 25.6 21.9 91 1.0 E 13 22 7 12 1014.1 - 29.8
24/07:00am 22.7 24.9 21.9 95 0.5 ESE 13 20 7 11 1013.9 1013.7 29.8
24/06:30am 22.4 25.4 21.9 97 0.3 SE 9 15 5 8 1013.9 - 29.6
24/06:00am 22.3 24.6 22.0 98 0.2 E 13 19 7 10 1013.6 1013.4 29.6
24/05:30am 22.1 24.3 21.9 99 0.1 SSE 13 20 7 11 1013.5 - 29.2
24/05:00am 21.8 23.1 21.6 99 0.1 S 17 26 9 14 1013.4 1013.2 28.8
24/04:32am 21.6 22.8 21.4 99 0.1 S 17 20 9 11 1013.1 - 28.4
24/04:30am 21.5 23.0 21.3 99 0.1 S 15 20 8 11 1013.0 - 28.4
24/04:00am 21.3 22.7 21.1 99 0.1 S 15 20 8 11 1013.1 1012.9 28.2
24/03:30am 21.1 22.7 20.8 98 0.2 SSW 13 17 7 9 1013.7 - 27.4
24/03:02am 21.1 22.4 20.9 99 0.1 SSW 15 20 8 11 1013.8 - 27.4
24/03:00am 21.2 22.5 20.9 98 0.2 SSW 15 20 8 11 1013.8 1013.6 27.4
24/02:30am 21.4 23.6 21.2 99 0.1 S 11 17 6 9 1013.9 - 27.2
24/02:00am 21.3 23.1 21.1 99 0.1 S 13 17 7 9 1013.7 1013.5 27.2
24/01:30am 21.2 22.9 21.0 99 0.1 S 13 19 7 10 1014.2 - 27.0
24/01:00am 22.2 24.0 21.9 98 0.2 SSE 15 20 8 11 1014.5 1014.3 26.2
24/12:30am 22.2 23.3 22.0 99 0.1 SSE 19 24 10 13 1014.5 - 26.2
24/12:00am 22.1 23.5 21.9 99 0.1 SSE 17 20 9 11 1014.7 1014.5 26.2
 
Date/Time
EST
Temp
°C
App
Temp
°C
Dew
Point
Rel
Hum
%
Delta-T
°C
Wind Press
QNH
hPa
Press
MSL
hPa
Rain
since 9 am
mm
Dir
 
Spd
km/h
Gust
km/h
Spd
kts
Gust
kts
23/11:30pm 21.8 23.1 21.6 99 0.1 S 17 20 9 11 1015.0 - 26.2
23/11:00pm 22.3 23.9 22.1 99 0.1 SSE 17 24 9 13 1015.5 1015.3 25.0
23/10:52pm 22.4 24.0 22.1 98 0.2 SSE 17 24 9 13 1015.6 - 25.0
23/10:48pm 22.3 23.8 22.0 98 0.2 SSE 17 24 9 13 1015.7 - 25.0
23/10:30pm 22.5 24.5 22.3 99 0.1 SSE 15 22 8 12 1015.8 - 24.0
23/10:00pm 22.2 23.1 21.9 98 0.2 S 20 30 11 16 1016.0 1015.8 18.4
23/09:30pm 22.2 23.6 21.9 98 0.2 S 17 24 9 13 1016.1 - 7.6
23/09:02pm 22.2 23.9 21.7 97 0.3 S 15 20 8 11 1015.9 - 5.0
23/09:00pm 22.3 24.1 21.8 97 0.3 S 15 20 8 11 1015.9 1015.7 4.8
23/08:48pm 23.1 24.5 22.5 96 0.4 SSE 19 28 10 15 1016.0 - 4.4
23/08:38pm 23.0 23.8 22.4 96 0.4 SSE 22 33 12 18 1015.9 - 4.4
23/08:30pm 22.9 24.1 22.5 98 0.3 SSE 20 32 11 17 1015.8 - 4.2
23/08:00pm 22.8 23.5 22.2 96 0.4 SSE 22 35 12 19 1015.2 1015.0 3.6
23/07:30pm 22.8 23.8 22.2 96 0.4 SSE 20 32 11 17 1015.1 - 3.0
23/07:19pm 22.8 23.7 22.0 95 0.5 SSE 20 30 11 16 1014.8 - 2.6
23/07:00pm 23.2 22.9 21.8 92 0.9 SSE 26 39 14 21 1014.4 1014.2 2.0
23/06:56pm 23.3 23.0 21.8 91 1.0 SSE 26 39 14 21 1014.5 - 2.0
23/06:53pm 23.5 23.0 21.5 88 1.3 SSE 26 39 14 21 1014.5 - 2.0
23/06:30pm 23.5 23.6 21.8 90 1.1 SSE 24 39 13 21 1014.2 - 2.0
23/06:12pm 23.4 23.6 22.0 92 0.9 SSE 24 33 13 18 1014.1 - 2.0
23/06:00pm 23.3 23.4 21.8 91 1.0 SSE 24 35 13 19 1013.7 1013.5 2.0
23/05:53pm 23.2 23.0 22.0 93 0.8 SSE 26 37 14 20 1013.6 - 1.8
23/05:30pm 22.8 22.9 21.9 95 0.6 SSE 24 33 13 18 1013.4 - 1.8
23/05:00pm 22.5 22.8 21.6 95 0.6 SSE 22 32 12 17 1013.2 1013.0 1.8
23/04:30pm 22.1 22.6 21.2 95 0.6 SSE 20 26 11 14 1013.2 - 1.8
23/04:00pm 22.2 22.7 21.1 93 0.7 S 20 32 11 17 1013.8 1013.6 1.8
23/03:41pm 22.3 22.8 21.1 93 0.8 S 20 30 11 16 1013.8 - 1.8
23/03:30pm 22.3 22.3 20.9 92 0.9 SSE 22 35 12 19 1013.7 - 1.8
23/03:00pm 22.4 23.1 21.5 95 0.6 S 20 32 11 17 1013.6 1013.4 1.8
23/02:30pm 22.3 21.6 21.1 93 0.8 S 26 35 14 19 1013.4 - 1.6
23/02:00pm 22.3 21.8 21.4 95 0.6 S 26 37 14 20 1013.5 1013.3 1.6
23/01:30pm 22.6 22.1 21.4 93 0.8 S 26 37 14 20 1013.5 - 1.0
23/01:00pm 23.1 23.6 21.9 93 0.8 S 22 32 12 17 1014.0 1013.8 1.0
23/12:30pm 23.5 24.0 22.0 91 1.0 S 22 30 12 16 1014.4 - 0.8
23/12:00pm 24.0 24.0 21.7 87 1.5 S 24 32 13 17 1015.2 1015.0 0.6
23/11:30am 24.4 24.9 22.0 86 1.6 SSE 22 32 12 17 1015.5 - 0.6
23/11:00am 24.3 24.5 22.0 87 1.5 SSE 24 37 13 20 1015.6 1015.4 0.6
23/10:30am 24.1 25.2 22.0 88 1.4 SSE 19 30 10 16 1015.8 - 0.6
23/10:00am 23.0 23.9 21.9 93 0.7 SSE 20 28 11 15 1015.8 1015.6 0.6
23/09:30am 23.3 23.6 20.7 85 1.7 S 20 33 11 18 1016.2 - 0.0
23/09:00am 23.7 22.7 20.5 82 2.1 S 26 35 14 19 1015.8 1015.6 0.2
23/08:44am 24.2 23.8 21.0 82 2.1 S 24 32 13 17 1015.6 - 0.2
23/08:30am 25.2 26.4 22.2 83 2.0 SE 19 30 10 16 1015.7 - 0.2
23/08:00am 25.3 26.9 22.2 83 2.1 SE 17 26 9 14 1015.6 1015.4 0.2
23/07:30am 24.9 26.2 21.6 82 2.2 ESE 17 26 9 14 1015.5 - 0.2
23/07:00am 24.4 25.2 20.7 80 2.4 SE 17 26 9 14 1015.2 1015.0 0.2
23/06:30am 23.4 24.8 21.0 86 1.6 SSE 15 20 8 11 1015.1 - 0.2
23/06:00am 23.6 24.4 20.7 84 1.9 S 17 26 9 14 1014.9 1014.7 0.2
23/05:30am 23.4 24.7 20.8 85 1.7 S 15 22 8 12 1015.0 - 0.2
23/05:00am 23.2 23.5 20.4 84 1.8 S 19 24 10 13 1015.0 1014.8 0.2
23/04:30am 23.1 23.8 20.5 85 1.7 S 17 28 9 15 1015.0 - 0.2
23/04:00am 24.1 24.9 20.7 81 2.2 SSE 17 26 9 14 1014.9 1014.7 0.2
23/03:30am 24.4 25.2 20.6 79 2.5 SE 17 28 9 15 1014.7 - 0.2
23/03:00am 24.4 25.4 20.2 77 2.7 SE 15 22 8 12 1015.0 1014.8 0.2
23/02:30am 24.3 25.3 20.3 78 2.6 SE 15 22 8 12 1015.3 - 0.2
23/02:00am 24.3 25.3 20.3 78 2.6 SE 15 24 8 13 1015.6 1015.4 0.2
23/01:30am 24.4 25.7 20.2 77 2.7 ESE 13 22 7 12 1015.6 - 0.2
23/01:00am 24.0 25.5 20.6 81 2.2 SE 13 20 7 11 1015.9 1015.7 0.2
23/12:30am 23.7 24.9 20.6 83 2.0 ESE 15 26 8 14 1015.9 - 0.2
23/12:00am 24.8 25.4 19.5 72 3.4 SE 15 26 8 14 1016.2 1016.0 0.0
 
Date/Time
EST
Temp
°C
App
Temp
°C
Dew
Point
Rel
Hum
%
Delta-T
°C
Wind Press
QNH
hPa
Press
MSL
hPa
Rain
since 9 am
mm
Dir
 
Spd
km/h
Gust
km/h
Spd
kts
Gust
kts
22/11:30pm 24.6 25.6 20.3 77 2.8 SE 15 24 8 13 1016.5 - 0.0
22/11:00pm 24.8 25.3 20.0 74 3.1 SE 17 24 9 13 1016.7 1016.5 0.0
22/10:30pm 24.8 25.9 20.5 77 2.8 SE 15 22 8 12 1017.0 - 0.0
22/10:00pm 24.6 25.9 20.8 79 2.5 SE 15 26 8 14 1017.2 1017.0 0.0
22/09:30pm 24.6 25.5 20.9 80 2.4 SE 17 26 9 14 1017.3 - 0.0
22/09:00pm 25.1 26.0 20.0 73 3.3 SE 15 24 8 13 1017.5 1017.3 0.0
22/08:30pm 25.1 26.2 19.7 72 3.5 ESE 13 26 7 14 1017.4 - 0.0
22/08:00pm 25.1 26.1 19.5 71 3.6 ESE 13 20 7 11 1017.2 1017.0 0.0
22/07:30pm 25.0 25.7 19.7 72 3.4 SE 15 20 8 11 1017.0 - 0.0
22/07:00pm 25.1 25.6 19.2 70 3.8 ESE 15 22 8 12 1016.2 1016.0 0.0
22/06:30pm 25.1 26.5 19.5 71 3.6 ESE 11 19 6 10 1016.3 - 0.0
22/06:00pm 25.1 26.3 19.0 69 3.9 E 11 17 6 9 1016.4 1016.2 0.0
22/05:30pm 25.2 26.0 19.1 69 3.9 E 13 20 7 11 1016.1 - 0.0
22/05:00pm 25.2 25.9 18.8 67 4.1 E 13 20 7 11 1015.7 1015.5 0.0
22/04:30pm 25.4 26.4 18.6 66 4.3 E 11 19 6 10 1015.6 - 0.0
22/04:00pm 25.6 26.4 18.2 63 4.7 ESE 11 20 6 11 1015.8 1015.6 0.0
22/03:30pm 26.0 26.2 17.7 60 5.2 ESE 13 22 7 12 1015.6 - 0.0
22/03:00pm 26.1 26.3 17.7 60 5.3 SE 13 26 7 14 1015.6 1015.4 0.0
22/02:30pm 26.9 26.5 18.1 58 5.6 SE 17 30 9 16 1015.8 - 0.0
22/02:00pm 26.7 27.1 19.9 66 4.4 SE 17 28 9 15 1016.0 1015.8 0.0
22/01:30pm 26.7 26.9 20.1 67 4.3 SSE 19 28 10 15 1016.3 - 0.0
22/01:00pm 26.3 26.5 20.2 69 4.0 SSE 19 28 10 15 1016.5 1016.3 0.0
22/12:30pm 25.0 24.8 19.7 72 3.4 SSE 20 32 11 17 1016.9 - 0.0
22/12:00pm 25.5 25.2 20.3 73 3.4 SSE 22 33 12 18 1017.0 1016.8 0.0
22/11:30am 25.0 24.3 19.6 72 3.5 SSE 22 32 12 17 1017.6 - 0.0
22/11:00am 25.8 26.0 20.1 71 3.7 SSE 19 28 10 15 1018.1 1017.9 0.0
22/10:30am 25.8 25.7 19.6 68 4.0 SSE 19 26 10 14 1018.4 - 0.0
22/10:00am 25.6 25.9 19.5 69 3.9 S 17 24 9 13 1018.7 1018.5 0.0
22/09:30am 25.7 25.9 19.3 67 4.1 SSE 17 24 9 13 1018.9 - 0.0
22/09:00am 26.2 26.1 17.8 60 5.3 E 15 24 8 13 1018.8 1018.6 0.6
22/08:30am 26.1 25.6 17.8 60 5.2 E 17 24 9 13 1018.6 - 0.6
22/08:00am 24.6 25.3 18.8 70 3.7 ESE 13 24 7 13 1018.1 1017.9 0.6
22/07:30am 24.2 23.9 18.3 69 3.7 SE 17 28 9 15 1017.9 - 0.6
22/07:00am 24.1 23.5 18.4 70 3.6 ESE 19 30 10 16 1017.6 1017.4 0.6
22/06:30am 24.2 24.2 19.0 72 3.3 ESE 17 28 9 15 1017.5 - 0.6
22/06:00am 24.0 23.7 18.3 70 3.6 SE 17 28 9 15 1017.2 1017.0 0.6
22/05:30am 24.2 24.4 18.5 70 3.6 ESE 15 20 8 11 1016.9 - 0.6
22/05:00am 24.4 23.1 17.3 64 4.4 E 20 28 11 15 1016.8 1016.6 0.6
22/04:30am 24.4 23.2 17.5 65 4.3 E 20 30 11 16 1016.6 - 0.6
22/04:00am 24.6 23.1 16.8 62 4.8 E 20 28 11 15 1016.8 1016.6 0.6
22/03:30am 24.1 23.0 17.7 67 4.0 E 20 28 11 15 1016.8 - 0.6
22/03:00am 23.5 23.1 18.1 71 3.4 ENE 17 30 9 16 1016.7 1016.5 0.6
22/02:30am 23.8 23.4 19.3 76 2.9 E 20 32 11 17 1016.9 - 0.4
22/02:00am 24.7 24.4 18.2 67 4.1 ESE 17 24 9 13 1017.0 1016.8 0.0
22/01:30am 24.8 24.3 17.8 65 4.4 ESE 17 32 9 17 1017.3 - 0.0
22/01:00am 24.8 24.9 18.3 67 4.1 ESE 15 30 8 16 1017.4 1017.2 0.0
22/12:30am 24.8 24.5 18.3 67 4.1 E 17 26 9 14 1017.8 - 0.0
22/12:00am 24.5 24.5 19.0 71 3.5 E 17 28 9 15 1018.0 1017.8 0.0
 
Date/Time
EST
Temp
°C
App
Temp
°C
Dew
Point
Rel
Hum
%
Delta-T
°C
Wind Press
QNH
hPa
Press
MSL
hPa
Rain
since 9 am
mm
Dir
 
Spd
km/h
Gust
km/h
Spd
kts
Gust
kts
21/11:30pm 24.7 24.5 18.4 68 4.0 ESE 17 28 9 15 1018.2 - 0.0

Other Formats:

Comma delimited format used in spreadsheet applications
http://www.bom.gov.au/fwo/IDQ60801/IDQ60801.94367.axf

JavaScript Object Notation format (JSON) in row-major order
http://www.bom.gov.au/fwo/IDQ60801/IDQ60801.94367.json